METAR Data
IDs: Format: Raw Decoded Include TAF

Data at: 1101 UTC 21 Oct 2019

KDVO 211055Z AUTO 00000KT 10SM CLR 11/09 A3013 RMK AO2
KDVO 211035Z AUTO 00000KT 10SM CLR 11/09 A3013 RMK AO2
KDVO 211015Z AUTO 00000KT 10SM CLR 11/09 A3013 RMK AO2
KDVO 210955Z AUTO 00000KT 10SM CLR 11/09 A3014 RMK AO2
KDVO 210935Z AUTO 08003KT 10SM CLR 10/08 A3013 RMK AO2
KDVO 210915Z AUTO 00000KT 10SM CLR 11/09 A3012 RMK AO2
KDVO 210855Z AUTO 00000KT 10SM CLR 10/08 A3013 RMK AO2
KDVO 210835Z AUTO 00000KT 10SM CLR 10/08 A3013 RMK AO2
KDVO 210815Z AUTO 00000KT 10SM CLR 11/09 A3013 RMK AO2
KDVO 210755Z AUTO 19003KT 10SM CLR 12/10 A3013 RMK AO2
KDVO 210735Z AUTO 18003KT 10SM CLR 12/10 A3013 RMK AO2
KDVO 210715Z AUTO 00000KT 10SM CLR 12/09 A3013 RMK AO2
KDVO 210655Z AUTO 00000KT 10SM CLR 11/08 A3013 RMK AO2
KDVO 210635Z AUTO 10SM CLR 12/09 A3013 RMK AO2
KDVO 210615Z AUTO 00000KT 10SM CLR 12/08 A3013 RMK AO2
KDVO 210555Z AUTO 00000KT 10SM CLR 13/09 A3013 RMK AO2
KDVO 210535Z AUTO 00000KT 10SM CLR 13/09 A3013 RMK AO2
KDVO 210515Z AUTO 00000KT 10SM CLR 13/09 A3012 RMK AO2
KDVO 210455Z AUTO 00000KT 10SM CLR 14/09 A3011 RMK AO2
KDVO 210435Z AUTO 01004KT 10SM CLR 13/09 A3010 RMK AO2
KDVO 210415Z AUTO 01004KT 10SM CLR 14/09 A3010 RMK AO2
KDVO 210355Z AUTO 03004KT 10SM CLR 14/09 A3009 RMK AO2
KDVO 210335Z AUTO 00000KT 10SM CLR 15/09 A3010 RMK AO2
KDVO 210315Z AUTO 36005KT 10SM CLR 16/09 A3010 RMK AO2
KDVO 210255Z AUTO VRB03KT 10SM CLR 16/09 A3009 RMK AO2
KDVO 210235Z AUTO 11005KT 10SM CLR 17/09 A3008 RMK AO2
KDVO 210215Z AUTO 13004KT 10SM CLR 18/09 A3008 RMK AO2
KDVO 210155Z AUTO VRB03KT 10SM CLR 18/08 A3007 RMK AO2
KDVO 210135Z AUTO VRB04KT 10SM CLR 19/08 A3007 RMK AO2
KDVO 210115Z AUTO 22008KT 10SM CLR 20/08 A3006 RMK AO2
KDVO 210055Z AUTO 23008KT 10SM CLR 20/08 A3007 RMK AO2
KDVO 210035Z AUTO 00000KT 10SM CLR 22/07 A3007 RMK AO2
KDVO 210015Z AUTO 27007G14KT 10SM CLR 23/07 A3008 RMK AO2
KDVO 202355Z AUTO 00000KT 10SM CLR 23/06 A3008 RMK AO2
KDVO 202335Z AUTO VRB04G11KT 10SM CLR 24/05 A3009 RMK AO2
KDVO 202315Z AUTO 22010G18KT 10SM CLR 24/05 A3008 RMK AO2
KDVO 202255Z AUTO 24011KT 10SM CLR 24/05 A3008 RMK AO2
KDVO 202235Z AUTO 27006KT 10SM CLR 25/05 A3007 RMK AO2
KDVO 202215Z AUTO 31005KT 10SM CLR 25/05 A3008 RMK AO2
KDVO 202155Z AUTO 30008KT 10SM CLR 25/05 A3009 RMK AO2
KDVO 202135Z AUTO 29005G14KT 10SM CLR 25/04 A3009 RMK AO2
KDVO 202115Z AUTO 30010KT 7SM CLR 25/04 A3010 RMK AO2
KDVO 202055Z AUTO 31006G13KT 10SM CLR 25/05 A3011 RMK AO2
KDVO 202035Z AUTO 30010KT 9SM CLR 25/04 A3011 RMK AO2
KDVO 202015Z AUTO 30009G14KT 10SM CLR 25/03 A3012 RMK AO2
KDVO 201955Z AUTO 29007G13KT 10SM CLR 24/03 A3013 RMK AO2
KDVO 201935Z AUTO 30007G13KT 10SM CLR 24/02 A3014 RMK AO2
KDVO 201915Z AUTO 34010KT 10SM CLR 23/02 A3014 RMK AO2
KDVO 201855Z AUTO 34007KT 270V010 10SM CLR 23/02 A3015 RMK AO2
KDVO 201835Z AUTO 35007KT 10SM CLR 22/03 A3016 RMK AO2
KDVO 201815Z AUTO 32008KT 10SM CLR 22/02 A3015 RMK AO2
KDVO 201755Z AUTO 31008KT 10SM CLR 21/03 A3015 RMK AO2
KDVO 201735Z AUTO 34011KT 10SM CLR 19/05 A3015 RMK AO2
KDVO 201715Z AUTO 33011KT 10SM CLR 19/04 A3015 RMK AO2
KDVO 201655Z AUTO 34012KT 10SM CLR 18/05 A3015 RMK AO2
KDVO 201635Z AUTO 33010G15KT 10SM CLR 18/05 A3014 RMK AO2
KDVO 201615Z AUTO 35010KT 10SM CLR 16/07 A3014 RMK AO2
KDVO 201555Z AUTO 00000KT 10SM CLR 15/07 A3014 RMK AO2
KDVO 201535Z AUTO 00000KT 10SM CLR 15/07 A3012 RMK AO2
KDVO 201515Z AUTO 00000KT 10SM CLR 11/08 A3012 RMK AO2
KDVO 201455Z AUTO VRB04KT 10SM CLR 10/08 A3012 RMK AO2
KDVO 201435Z AUTO 00000KT 10SM CLR 09/08 A3012 RMK AO2
KDVO 201415Z AUTO 00000KT 10SM CLR 09/07 A3012 RMK AO2
KDVO 201355Z AUTO VRB03KT 10SM CLR 09/08 A3011 RMK AO2
KDVO 201335Z AUTO 04005KT 10SM CLR 09/08 A3010 RMK AO2
KDVO 201315Z AUTO 07006KT 10SM CLR 10/08 A3009 RMK AO2
KDVO 201255Z AUTO 02004KT 10SM CLR 10/08 A3010 RMK AO2
KDVO 201235Z AUTO 01006KT 10SM CLR 11/08 A3010 RMK AO2
KDVO 201215Z AUTO 32008KT 10SM CLR 13/08 A3009 RMK AO2
KDVO 201155Z AUTO 33009G15KT 10SM CLR 14/08 A3009 RMK AO2
KDVO 201135Z AUTO 31011KT 10SM CLR 14/09 A3009 RMK AO2
KDVO 201115Z AUTO 32009G15KT 10SM CLR 14/09 A3009 RMK AO2
KDVO 201055Z AUTO 32010KT 10SM CLR 13/09 A3010 RMK AO2
KDVO 201035Z AUTO 10SM CLR 12/10 A3009 RMK AO2
KDVO 201015Z AUTO 00000KT 10SM CLR 13/10 A3009 RMK AO2
KDVO 200955Z AUTO 32007KT 10SM CLR 13/11 A3009 RMK AO2
KDVO 200935Z AUTO 34007KT 10SM CLR 14/10 A3009 RMK AO2
KDVO 200915Z AUTO 31006KT 10SM CLR 13/10 A3009 RMK AO2
KDVO 200855Z AUTO 33010KT 10SM CLR 14/10 A3009 RMK AO2
KDVO 200835Z AUTO 35009KT 10SM CLR 14/10 A3008 RMK AO2
KDVO 200815Z AUTO 34008KT 10SM CLR 14/10 A3007 RMK AO2
KDVO 200755Z AUTO 33009KT 10SM CLR 15/11 A3007 RMK AO2
KDVO 200735Z AUTO 33009G15KT 10SM CLR 15/11 A3007 RMK AO2
KDVO 200715Z AUTO 33010KT 10SM CLR 15/11 A3008 RMK AO2
KDVO 200655Z AUTO 30005KT 10SM CLR 15/11 A3008 RMK AO2
KDVO 200635Z AUTO 31009G14KT 10SM CLR 15/12 A3008 RMK AO2
KDVO 200615Z AUTO 31009KT 10SM CLR 15/12 A3008 RMK AO2
KDVO 200555Z AUTO 33009KT 10SM CLR 13/13 A3008 RMK AO2
KDVO 200535Z AUTO 00000KT 10SM CLR 11/10 A3007 RMK AO2
KDVO 200515Z AUTO 00000KT 10SM CLR 12/10 A3007 RMK AO2
KDVO 200455Z AUTO 05003KT 10SM CLR 13/12 A3007 RMK AO2
KDVO 200435Z AUTO 00000KT 10SM CLR 12/11 A3006 RMK AO2
KDVO 200415Z AUTO 34003KT 10SM CLR 11/10 A3006 RMK AO2
KDVO 200355Z AUTO 00000KT 10SM CLR 13/12 A3006 RMK AO2
KDVO 200335Z AUTO 04003KT 10SM CLR 13/11 A3006 RMK AO2
KDVO 200315Z AUTO 08004KT 10SM CLR 14/12 A3005 RMK AO2
KDVO 200255Z AUTO 00000KT 10SM CLR 14/12 A3005 RMK AO2
KDVO 200235Z AUTO 07003KT 10SM CLR 14/12 A3004 RMK AO2
KDVO 200215Z AUTO 23006KT 10SM CLR 15/13 A3003 RMK AO2
KDVO 200155Z AUTO 20003KT 10SM CLR 16/13 A3003 RMK AO2
KDVO 200135Z AUTO 22005KT 10SM CLR 16/13 A3003 RMK AO2
KDVO 200115Z AUTO 22005KT 10SM CLR 17/13 A3003 RMK AO2
KDVO 200055Z AUTO VRB04KT 10SM CLR 18/13 A3003 RMK AO2
KDVO 200035Z AUTO 23007KT 10SM CLR 18/13 A3002 RMK AO2
KDVO 200015Z AUTO 00000KT 10SM CLR 19/13 A3003 RMK AO2
KDVO 192355Z AUTO 35005G12KT 10SM CLR 19/13 A3004 RMK AO2
KDVO 192335Z AUTO 34007KT 10SM CLR 20/13 A3004 RMK AO2
KDVO 192315Z AUTO 30008G14KT 280V340 10SM CLR 21/13 A3004 RMK AO2